createdAt,value
2022-09-09T00:02:46.602Z,12.60
2022-09-09T00:07:19.881Z,12.60
2022-09-09T00:11:32.072Z,12.50
2022-09-09T00:16:03.512Z,12.50
2022-09-09T00:20:25.738Z,12.40
2022-09-09T00:24:43.485Z,12.30
2022-09-09T00:29:01.745Z,12.30
2022-09-09T00:33:14.092Z,12.30
2022-09-09T00:37:17.735Z,12.20
2022-09-09T00:41:42.415Z,12.20
2022-09-09T00:46:07.336Z,12.30
2022-09-09T00:50:31.101Z,12.30
2022-09-09T00:54:42.270Z,12.30
2022-09-09T00:58:57.273Z,12.30
2022-09-09T01:03:25.391Z,12.30
2022-09-09T01:07:27.853Z,12.30
2022-09-09T01:11:44.284Z,12.20
2022-09-09T01:15:50.358Z,12.20
2022-09-09T01:19:58.245Z,12.20
2022-09-09T01:24:28.094Z,12.20
2022-09-09T01:29:10.871Z,12.20
2022-09-09T01:33:18.346Z,12.30
2022-09-09T01:37:20.764Z,12.30
2022-09-09T01:41:23.349Z,12.30
2022-09-09T01:45:34.851Z,12.30
2022-09-09T01:49:36.838Z,12.30
2022-09-09T01:53:47.919Z,12.30
2022-09-09T01:58:23.418Z,12.30
2022-09-09T02:03:01.643Z,12.40
2022-09-09T02:07:31.993Z,12.40
2022-09-09T02:11:35.241Z,12.40
2022-09-09T02:15:59.507Z,12.30
2022-09-09T02:20:15.477Z,12.30
2022-09-09T02:24:38.424Z,12.30
2022-09-09T02:28:55.228Z,12.30
2022-09-09T02:33:01.004Z,12.30
2022-09-09T02:37:24.619Z,12.30
2022-09-09T02:41:34.023Z,12.30
2022-09-09T02:45:45.690Z,12.30
2022-09-09T02:50:12.244Z,12.30
2022-09-09T02:54:20.819Z,12.30
2022-09-09T02:58:25.263Z,12.30
2022-09-09T03:02:40.025Z,12.30
2022-09-09T03:06:43.863Z,12.40
2022-09-09T03:10:59.934Z,12.40
2022-09-09T03:15:04.411Z,12.40
2022-09-09T03:19:07.989Z,12.40
2022-09-09T03:23:13.668Z,12.40
2022-09-09T03:27:18.587Z,12.40
2022-09-09T03:31:21.078Z,12.40
2022-09-09T03:35:23.857Z,12.40
2022-09-09T03:39:25.886Z,12.50
2022-09-09T03:43:29.482Z,12.50
2022-09-09T03:47:32.006Z,12.50
2022-09-09T03:51:42.444Z,12.50
2022-09-09T03:55:48.330Z,12.50
2022-09-09T03:59:50.551Z,12.50
2022-09-09T04:03:53.737Z,12.40
2022-09-09T04:07:56.304Z,12.40
2022-09-09T04:11:58.387Z,12.40
2022-09-09T04:16:03.336Z,12.50
2022-09-09T04:20:07.981Z,12.50
2022-09-09T04:24:10.550Z,12.50
2022-09-09T04:28:17.172Z,12.40
2022-09-09T04:32:19.680Z,12.50
2022-09-09T04:36:22.856Z,12.60
2022-09-09T04:40:27.345Z,12.80
2022-09-09T04:44:31.325Z,12.80
2022-09-09T04:48:34.859Z,13.10
2022-09-09T04:52:38.632Z,15.10
2022-09-09T04:56:42.749Z,17.30
2022-09-09T05:00:46.188Z,19.40
2022-09-09T05:04:48.214Z,21.60
2022-09-09T05:08:50.661Z,23.40
2022-09-09T05:12:57.210Z,25.10
2022-09-09T05:17:02.356Z,26.30
2022-09-09T05:21:05.141Z,25.30
2022-09-09T05:25:08.993Z,23.40
2022-09-09T05:29:11.163Z,22.00
2022-09-09T05:33:13.807Z,20.90
2022-09-09T05:37:16.025Z,20.10
2022-09-09T05:41:18.637Z,19.50
2022-09-09T05:45:21.650Z,19.10
2022-09-09T05:49:23.690Z,18.70
2022-09-09T05:53:26.397Z,18.50
2022-09-09T05:57:28.739Z,18.30
2022-09-09T06:01:33.248Z,18.20
2022-09-09T06:05:36.754Z,18.10
2022-09-09T06:09:47.023Z,18.10
2022-09-09T06:13:52.085Z,18.20
2022-09-09T06:17:57.028Z,18.30
2022-09-09T06:21:59.655Z,18.30
2022-09-09T06:26:19.051Z,18.30
2022-09-09T06:30:22.924Z,18.30
2022-09-09T06:34:25.031Z,18.30
2022-09-09T06:38:31.301Z,18.40
2022-09-09T06:42:33.766Z,18.50
2022-09-09T06:47:02.184Z,18.60
2022-09-09T06:51:11.087Z,18.60
2022-09-09T06:55:16.805Z,18.70
2022-09-09T06:59:18.834Z,18.90
2022-09-09T07:03:21.919Z,19.10
2022-09-09T07:07:26.034Z,19.30
2022-09-09T07:11:30.101Z,19.60
2022-09-09T07:15:34.710Z,19.80
2022-09-09T07:19:38.213Z,19.90
2022-09-09T07:23:42.748Z,19.90
2022-09-09T07:27:45.636Z,19.80
2022-09-09T07:31:49.485Z,19.80
2022-09-09T07:36:08.090Z,19.80
2022-09-09T07:40:10.435Z,19.80
2022-09-09T07:44:15.700Z,19.90
2022-09-09T07:48:19.957Z,20.00
2022-09-09T07:52:22.633Z,20.20
2022-09-09T07:56:30.399Z,20.40
2022-09-09T08:00:34.255Z,20.50
2022-09-09T08:04:36.658Z,20.60
2022-09-09T08:08:40.028Z,20.70
2022-09-09T08:13:01.551Z,20.80
2022-09-09T08:17:06.110Z,21.00
2022-09-09T08:21:18.808Z,21.10
2022-09-09T08:25:39.798Z,21.00
2022-09-09T08:29:42.233Z,21.00
2022-09-09T08:33:47.027Z,21.00
2022-09-09T08:37:55.543Z,21.10
2022-09-09T08:42:20.256Z,21.00
2022-09-09T08:46:37.280Z,21.10
2022-09-09T08:50:41.904Z,21.20
2022-09-09T08:54:59.757Z,21.20
2022-09-09T08:59:04.321Z,21.30
2022-09-09T09:03:51.860Z,21.40
2022-09-09T09:08:01.900Z,21.50
2022-09-09T09:12:19.387Z,21.50
2022-09-09T09:16:52.030Z,21.50
2022-09-09T09:21:11.846Z,21.50
2022-09-09T09:25:34.799Z,21.50
2022-09-09T09:29:56.489Z,21.50
2022-09-09T09:33:59.844Z,21.50
2022-09-09T09:42:59.000Z,21.50
2022-09-09T09:47:14.257Z,21.60
2022-09-09T09:51:23.563Z,21.70
2022-09-09T09:55:27.472Z,21.90
2022-09-09T09:59:39.776Z,22.20
2022-09-09T10:03:53.624Z,22.40
2022-09-09T10:08:11.639Z,22.50
2022-09-09T10:12:33.451Z,22.50
2022-09-09T10:16:38.401Z,22.40
2022-09-09T10:21:00.178Z,22.40
2022-09-09T10:25:41.162Z,22.60
2022-09-09T10:30:01.541Z,22.60
2022-09-09T10:34:31.608Z,22.60
2022-09-09T10:38:46.364Z,22.60
2022-09-09T10:42:48.518Z,22.70
2022-09-09T10:47:14.983Z,22.80
2022-09-09T10:51:24.928Z,22.90
2022-09-09T10:55:46.415Z,23.00
2022-09-09T10:59:52.273Z,23.00
2022-09-09T11:03:59.432Z,23.00
2022-09-09T11:08:07.198Z,23.10
2022-09-09T11:12:16.575Z,23.10
2022-09-09T11:16:42.934Z,23.20
2022-09-09T11:20:46.852Z,23.10
2022-09-09T11:25:16.680Z,23.10
2022-09-09T11:29:23.080Z,23.20
2022-09-09T11:33:44.409Z,23.20
2022-09-09T11:37:50.422Z,23.20
2022-09-09T11:41:52.514Z,23.20
2022-09-09T11:46:01.101Z,23.10
2022-09-09T11:50:16.253Z,23.00
2022-09-09T11:54:33.653Z,22.70
2022-09-09T11:58:40.316Z,22.40
2022-09-09T12:02:53.300Z,22.30
2022-09-09T12:07:00.683Z,22.50
2022-09-09T12:11:04.454Z,22.50
2022-09-09T12:15:09.513Z,22.30
2022-09-09T12:19:26.414Z,22.30
2022-09-09T12:24:04.113Z,22.20
2022-09-09T12:28:16.070Z,22.00
2022-09-09T12:32:24.178Z,21.70
2022-09-09T12:36:31.974Z,21.40
2022-09-09T12:40:38.419Z,21.20
2022-09-09T12:44:40.385Z,21.00
2022-09-09T12:48:46.658Z,20.80
2022-09-09T12:52:50.718Z,20.70
2022-09-09T12:56:52.971Z,20.70
2022-09-09T13:00:58.112Z,20.70
2022-09-09T13:05:14.103Z,20.80
2022-09-09T13:13:26.314Z,21.10
2022-09-09T13:17:30.236Z,21.30
2022-09-09T13:21:38.414Z,21.30
2022-09-09T13:25:43.739Z,21.00
2022-09-09T13:29:56.894Z,20.60
2022-09-09T13:33:59.103Z,20.30
2022-09-09T13:38:10.797Z,20.10
2022-09-09T13:42:26.531Z,19.80
2022-09-09T13:46:36.581Z,19.60
2022-09-09T13:50:39.032Z,19.30
2022-09-09T13:54:42.820Z,18.80
2022-09-09T13:58:45.405Z,18.70
2022-09-09T14:02:48.578Z,18.50
2022-09-09T14:06:51.766Z,18.40
2022-09-09T14:10:54.435Z,18.30
2022-09-09T14:14:56.491Z,18.10
2022-09-09T14:18:58.577Z,18.00
2022-09-09T14:23:08.308Z,18.10
2022-09-09T14:27:11.526Z,18.10
2022-09-09T14:31:14.615Z,18.10
2022-09-09T14:35:18.346Z,17.90
2022-09-09T14:39:20.249Z,17.80
2022-09-09T14:43:22.212Z,17.80
2022-09-09T14:47:24.263Z,17.60
2022-09-09T14:51:28.302Z,17.50
2022-09-09T14:55:30.422Z,17.40
2022-09-09T14:59:32.660Z,17.50
2022-09-09T15:03:35.474Z,17.50
2022-09-09T15:07:38.243Z,17.40
2022-09-09T15:11:40.297Z,17.50
2022-09-09T15:15:42.685Z,17.40
2022-09-09T15:19:44.682Z,17.20
2022-09-09T15:23:48.204Z,17.20
2022-09-09T15:27:50.718Z,17.20
2022-09-09T15:31:55.478Z,17.30
2022-09-09T15:35:57.324Z,17.30
2022-09-09T15:40:00.954Z,17.30
2022-09-09T15:44:03.160Z,17.40
2022-09-09T15:48:05.852Z,17.40
2022-09-09T15:52:10.608Z,17.40
2022-09-09T15:56:12.745Z,17.30
2022-09-09T16:00:15.059Z,17.30
2022-09-09T16:04:24.335Z,17.30
2022-09-09T16:08:32.227Z,17.30
2022-09-09T16:12:34.685Z,17.20
2022-09-09T16:16:36.866Z,17.20
2022-09-09T16:20:39.910Z,17.10
2022-09-09T16:24:42.175Z,17.00
2022-09-09T16:28:44.750Z,17.00
2022-09-09T16:32:46.627Z,16.90
2022-09-09T16:36:49.759Z,16.80
2022-09-09T16:40:51.866Z,16.80
2022-09-09T16:44:53.688Z,16.70
2022-09-09T16:48:57.831Z,16.60
2022-09-09T16:52:59.739Z,16.50
2022-09-09T16:57:01.981Z,16.50
2022-09-09T17:01:05.204Z,16.40
2022-09-09T17:05:07.276Z,16.40
2022-09-09T17:09:11.523Z,16.30
2022-09-09T17:13:14.485Z,16.20
2022-09-09T17:17:31.298Z,16.20
2022-09-09T17:21:34.238Z,16.10
2022-09-09T17:25:37.158Z,16.00
2022-09-09T17:29:40.172Z,15.90
2022-09-09T17:33:45.380Z,15.90
2022-09-09T17:37:47.716Z,15.90
2022-09-09T17:41:50.015Z,15.80
2022-09-09T17:45:53.409Z,15.80
2022-09-09T17:49:55.812Z,15.70
2022-09-09T17:54:01.145Z,15.70
2022-09-09T17:58:02.980Z,15.60
2022-09-09T18:02:06.244Z,15.50
2022-09-09T18:06:18.290Z,15.40
2022-09-09T18:10:21.824Z,15.30
2022-09-09T18:14:27.709Z,15.30
2022-09-09T18:18:31.159Z,15.20
2022-09-09T18:22:34.204Z,15.20
2022-09-09T18:26:36.978Z,15.30
2022-09-09T18:30:41.880Z,15.30
2022-09-09T18:34:43.982Z,15.30
2022-09-09T18:38:46.496Z,15.30
2022-09-09T18:42:48.722Z,15.30
2022-09-09T18:46:52.572Z,15.30
2022-09-09T18:50:54.646Z,15.20
2022-09-09T18:55:02.501Z,15.20
2022-09-09T18:59:07.896Z,15.20
2022-09-09T19:03:10.122Z,15.20
2022-09-09T19:07:13.507Z,15.10
2022-09-09T19:11:22.575Z,15.10
2022-09-09T19:15:25.223Z,15.10
2022-09-09T19:19:32.296Z,15.10
2022-09-09T19:23:34.603Z,15.10
2022-09-09T19:27:37.377Z,15.00
2022-09-09T19:31:41.567Z,15.00
2022-09-09T19:36:08.083Z,15.00
2022-09-09T19:40:11.823Z,15.00
2022-09-09T19:44:15.824Z,14.90
2022-09-09T19:48:18.090Z,14.90
2022-09-09T19:52:20.184Z,14.90
2022-09-09T19:56:23.419Z,14.80
2022-09-09T20:00:26.247Z,14.70
2022-09-09T20:04:28.356Z,14.70
2022-09-09T20:08:30.477Z,14.70
2022-09-09T20:12:32.659Z,14.70
2022-09-09T20:16:34.812Z,14.70
2022-09-09T20:20:41.089Z,14.70
2022-09-09T20:24:46.265Z,14.80
2022-09-09T20:28:51.382Z,14.80
2022-09-09T20:32:53.207Z,14.80
2022-09-09T20:36:57.264Z,14.70
2022-09-09T20:41:03.019Z,14.70
2022-09-09T20:45:05.976Z,14.70
2022-09-09T20:49:10.843Z,14.60
2022-09-09T20:53:12.702Z,14.60
2022-09-09T20:57:16.860Z,14.50
2022-09-09T21:01:21.631Z,14.50
2022-09-09T21:05:24.386Z,14.50
2022-09-09T21:09:26.355Z,14.40
2022-09-09T21:13:29.571Z,14.30
2022-09-09T21:17:32.026Z,14.30
2022-09-09T21:21:33.993Z,14.30
2022-09-09T21:25:35.960Z,14.20
2022-09-09T21:29:38.169Z,14.10
2022-09-09T21:33:42.013Z,14.10
2022-09-09T21:37:44.003Z,14.00
2022-09-09T21:41:46.987Z,14.00
2022-09-09T21:45:50.687Z,14.00
2022-09-09T21:49:52.891Z,14.00
2022-09-09T21:53:56.633Z,14.00
2022-09-09T21:57:59.783Z,14.00
2022-09-09T22:02:01.897Z,14.00
2022-09-09T22:06:06.840Z,14.00
2022-09-09T22:10:12.924Z,14.00
2022-09-09T22:14:16.332Z,14.00
2022-09-09T22:18:19.413Z,13.90
2022-09-09T22:22:21.932Z,13.90
2022-09-09T22:26:25.918Z,13.90
2022-09-09T22:30:28.772Z,13.80
2022-09-09T22:34:32.311Z,13.70
2022-09-09T22:38:36.705Z,13.60
2022-09-09T22:42:39.085Z,13.60
2022-09-09T22:46:41.274Z,13.50
2022-09-09T22:50:44.097Z,13.40
2022-09-09T22:54:46.644Z,13.40
2022-09-09T22:58:55.482Z,13.30
2022-09-09T23:02:57.628Z,13.20
2022-09-09T23:07:00.621Z,13.20
2022-09-09T23:11:11.541Z,13.10
2022-09-09T23:15:14.133Z,13.10
2022-09-09T23:19:16.999Z,13.10
2022-09-09T23:23:19.354Z,13.00
2022-09-09T23:27:21.673Z,13.00
2022-09-09T23:31:25.039Z,12.90
2022-09-09T23:35:27.044Z,12.90
2022-09-09T23:39:28.893Z,12.90
2022-09-09T23:43:31.693Z,12.90
2022-09-09T23:47:33.623Z,12.90
2022-09-09T23:51:37.924Z,12.90
2022-09-09T23:55:42.596Z,12.90
2022-09-09T23:59:44.415Z,12.80
